Time;durP1;ratioP1;P1;durP2;ratioP2;P2;SDS_P1;SDS_P2;PMS_P1;PMS_P2;Temp;Humidity;BMP_temperature;BMP_pressure;BME280_temperature;BME280_humidity;BME280_pressure;Samples;Min_cycle;Max_cycle;Signal;HPM_P1;HPM_P2
2022/02/13 00:01:48;;;;;;;6.87;4.53;;;4.60;65.80;;;;;;5035281;28;20653;-92
2022/02/13 00:04:15;;;;;;;13.73;6.07;;;4.60;65.10;;;;;;5024622;28;20428;-91
2022/02/13 00:06:41;;;;;;;7.93;4.60;;;4.40;65.10;;;;;;5027375;28;20197;-92
2022/02/13 00:09:07;;;;;;;11.80;5.87;;;4.30;65.60;;;;;;5041234;28;20192;-91
2022/02/13 00:11:32;;;;;;;8.40;5.13;;;4.20;65.70;;;;;;5021255;28;20428;-92
2022/02/13 00:13:58;;;;;;;11.53;5.93;;;4.30;66.10;;;;;;5023160;28;20341;-91
2022/02/13 00:16:27;;;;;;;11.40;5.10;;;4.30;66.20;;;;;;5003666;28;20434;-91
2022/02/13 00:18:53;;;;;;;7.53;4.60;;;4.30;65.90;;;;;;5023792;28;20488;-92
2022/02/13 00:21:19;;;;;;;10.35;5.35;;;4.30;66.00;;;;;;5022306;28;20174;-92
2022/02/13 00:23:44;;;;;;;9.20;4.80;;;4.30;66.10;;;;;;5020411;28;20332;-92
2022/02/13 00:26:10;;;;;;;8.97;5.67;;;4.40;66.20;;;;;;5020764;28;21078;-91
2022/02/13 00:28:39;;;;;;;11.33;5.77;;;4.50;66.00;;;;;;5021977;28;20181;-92
2022/02/13 00:31:05;;;;;;;13.27;5.45;;;4.40;65.90;;;;;;5021541;28;20253;-92
2022/02/13 00:33:32;;;;;;;15.00;8.10;;;4.60;66.40;;;;;;5022042;28;20230;-91
2022/02/13 00:35:58;;;;;;;14.88;6.00;;;4.50;65.80;;;;;;5019245;28;20182;-92
2022/02/13 00:38:24;;;;;;;6.15;4.93;;;4.50;65.70;;;;;;5033178;28;20222;-92
2022/02/13 00:40:49;;;;;;;8.07;4.80;;;4.40;65.70;;;;;;5020473;28;20184;-91
2022/02/13 00:43:15;;;;;;;11.57;5.40;;;4.40;66.10;;;;;;5038101;28;20216;-91
2022/02/13 00:45:41;;;;;;;12.53;5.27;;;4.30;66.00;;;;;;5038511;28;20186;-91
2022/02/13 00:48:10;;;;;;;11.40;5.60;;;4.20;65.80;;;;;;5038211;28;20253;-91
2022/02/13 00:50:36;;;;;;;13.02;5.03;;;4.10;65.90;;;;;;5044207;28;20417;-91
2022/02/13 00:53:05;;;;;;;12.15;5.72;;;4.00;66.70;;;;;;5019022;28;20201;-92
2022/02/13 00:55:30;;;;;;;10.93;6.55;;;4.00;67.00;;;;;;5026191;28;20198;-92
2022/02/13 00:57:59;;;;;;;12.40;6.23;;;3.90;67.20;;;;;;5013947;28;20210;-92
2022/02/13 01:00:25;;;;;;;8.65;5.13;;;3.90;67.30;;;;;;5013264;28;20174;-92
2022/02/13 01:02:51;;;;;;;7.83;4.93;;;3.90;67.10;;;;;;5029358;28;20208;-92
2022/02/13 01:05:17;;;;;;;8.25;6.40;;;3.90;66.80;;;;;;5046751;28;20405;-92
2022/02/13 01:07:44;;;;;;;11.63;5.45;;;3.90;66.90;;;;;;5018717;28;20671;-91
2022/02/13 01:10:10;;;;;;;12.63;5.93;;;3.90;66.80;;;;;;5017399;28;20269;-91
2022/02/13 01:12:36;;;;;;;9.52;5.78;;;3.90;67.00;;;;;;5033154;28;20211;-91
2022/02/13 01:15:03;;;;;;;9.93;5.60;;;4.00;66.70;;;;;;5016247;28;20182;-92
2022/02/13 01:17:29;;;;;;;10.80;5.35;;;3.80;66.80;;;;;;5033706;28;20174;-92
2022/02/13 01:19:55;;;;;;;12.10;5.33;;;3.80;67.40;;;;;;5023225;28;20189;-92
2022/02/13 01:22:20;;;;;;;10.90;5.63;;;3.80;67.10;;;;;;5017690;28;20824;-92
2022/02/13 01:24:46;;;;;;;9.23;4.80;;;3.70;67.30;;;;;;5016087;28;20436;-92
2022/02/13 01:27:12;;;;;;;11.57;5.80;;;3.80;67.60;;;;;;5022313;28;20189;-92
2022/02/13 01:29:38;;;;;;;8.65;4.32;;;3.70;67.50;;;;;;5017458;28;20184;-91
2022/02/13 01:32:04;;;;;;;8.17;4.87;;;3.70;67.50;;;;;;5033354;28;20568;-91
2022/02/13 01:34:30;;;;;;;12.55;7.05;;;3.80;67.70;;;;;;5020305;28;20193;-92
2022/02/13 01:36:55;;;;;;;12.37;6.17;;;3.90;67.50;;;;;;5016438;28;20234;-92
2022/02/13 01:39:21;;;;;;;11.90;4.73;;;3.80;67.50;;;;;;5016511;28;20512;-91
2022/02/13 01:41:49;;;;;;;9.13;5.45;;;3.70;67.20;;;;;;5000774;28;20183;-91
2022/02/13 01:44:26;;;;;;;11.40;5.53;;;3.70;67.20;;;;;;5020740;28;20205;-92
2022/02/13 01:46:52;;;;;;;13.82;5.43;;;3.80;67.30;;;;;;5014972;28;20261;-93
2022/02/13 01:49:21;;;;;;;11.55;5.57;;;3.90;67.40;;;;;;5015963;28;20653;-92
2022/02/13 01:51:47;;;;;;;10.88;5.30;;;4.10;67.10;;;;;;5016516;28;20557;-92
2022/02/13 01:54:13;;;;;;;10.52;5.85;;;4.10;66.90;;;;;;5016900;28;20208;-92
2022/02/13 01:56:39;;;;;;;9.37;5.03;;;4.10;66.90;;;;;;5033062;28;20190;-91
2022/02/13 01:59:06;;;;;;;8.52;5.63;;;4.10;66.60;;;;;;5026801;28;20190;-92
2022/02/13 02:01:32;;;;;;;10.20;5.38;;;4.10;66.50;;;;;;5024034;28;20189;-92
2022/02/13 02:03:58;;;;;;;9.10;5.57;;;4.10;66.70;;;;;;5032037;28;20280;-91
2022/02/13 02:06:23;;;;;;;9.90;5.90;;;4.00;66.20;;;;;;5037590;28;20842;-91
2022/02/13 02:08:49;;;;;;;15.20;7.00;;;3.90;66.40;;;;;;5021836;28;20261;-92
2022/02/13 02:11:15;;;;;;;8.70;5.38;;;3.90;66.70;;;;;;5018508;28;20363;-91
2022/02/13 02:13:41;;;;;;;11.70;5.83;;;3.80;66.70;;;;;;5024642;28;20689;-92
2022/02/13 02:16:08;;;;;;;9.80;5.23;;;3.80;66.70;;;;;;5015887;28;20180;-92
2022/02/13 02:18:34;;;;;;;5.07;4.22;;;3.90;67.00;;;;;;5016052;28;20280;-92
2022/02/13 02:21:04;;;;;;;11.10;5.32;;;3.80;67.40;;;;;;5016007;28;20212;-91
2022/02/13 02:23:32;;;;;;;15.23;5.50;;;3.60;67.00;;;;;;5019308;28;20201;-90
2022/02/13 02:25:57;;;;;;;8.02;5.57;;;3.90;67.30;;;;;;5030417;28;20189;-91
2022/02/13 02:28:23;;;;;;;9.17;5.03;;;3.80;67.00;;;;;;5036302;28;20304;-91
2022/02/13 02:30:49;;;;;;;10.70;5.80;;;4.00;67.10;;;;;;5016191;28;20428;-92
2022/02/13 02:33:15;;;;;;;10.70;5.90;;;4.00;66.70;;;;;;5022072;28;20620;-92
2022/02/13 02:35:43;;;;;;;9.93;5.73;;;3.80;66.60;;;;;;5016602;28;20193;-92
2022/02/13 02:38:08;;;;;;;13.02;6.20;;;3.80;66.80;;;;;;5028798;28;20268;-93
2022/02/13 02:40:34;;;;;;;15.63;6.60;;;3.70;67.20;;;;;;5003887;28;20795;-92
2022/02/13 02:43:00;;;;;;;11.87;5.70;;;3.80;67.00;;;;;;5019941;28;20206;-92
2022/02/13 02:45:26;;;;;;;7.93;5.77;;;3.90;67.10;;;;;;5007010;28;20189;-90
2022/02/13 02:47:51;;;;;;;9.20;5.20;;;4.00;66.70;;;;;;5001184;28;20433;-91
2022/02/13 02:50:17;;;;;;;11.47;6.90;;;3.90;66.70;;;;;;5018451;28;20297;-92
2022/02/13 02:52:43;;;;;;;8.53;5.40;;;3.70;66.50;;;;;;5023441;28;20205;-91
2022/02/13 02:55:09;;;;;;;10.57;5.45;;;3.80;66.70;;;;;;5046786;28;20212;-91
2022/02/13 02:57:35;;;;;;;7.80;5.50;;;3.80;66.80;;;;;;5041993;28;20199;-91
2022/02/13 03:00:02;;;;;;;9.43;5.70;;;3.90;66.70;;;;;;5028125;28;20186;-91
2022/02/13 03:02:28;;;;;;;15.57;6.32;;;3.80;66.60;;;;;;5039038;28;20206;-92
2022/02/13 03:04:54;;;;;;;10.00;6.00;;;3.80;66.60;;;;;;5024387;28;20178;-91
2022/02/13 03:07:19;;;;;;;8.60;5.17;;;3.90;66.70;;;;;;5026044;28;20200;-91
2022/02/13 03:09:45;;;;;;;12.70;5.80;;;3.80;66.40;;;;;;5029135;28;20247;-92
2022/02/13 03:12:17;;;;;;;8.70;5.40;;;4.00;66.80;;;;;;5017409;28;20198;-91
2022/02/13 03:14:43;;;;;;;11.20;5.93;;;4.10;66.80;;;;;;5034217;28;20891;-92
2022/02/13 03:17:09;;;;;;;10.85;6.03;;;4.10;66.50;;;;;;5036252;28;20177;-92
2022/02/13 03:19:36;;;;;;;12.93;6.20;;;3.80;66.20;;;;;;5031803;28;20595;-92
2022/02/13 03:22:02;;;;;;;10.88;5.43;;;3.80;66.70;;;;;;5018147;28;20480;-93
2022/02/13 03:24:28;;;;;;;14.75;5.22;;;3.80;66.60;;;;;;5020962;28;20261;-92
2022/02/13 03:26:53;;;;;;;10.20;6.20;;;3.60;67.00;;;;;;5018075;28;20194;-92
2022/02/13 03:29:19;;;;;;;13.40;6.07;;;3.70;67.10;;;;;;5036852;28;20197;-92
2022/02/13 03:31:45;;;;;;;9.83;5.50;;;3.70;67.00;;;;;;5038348;28;20174;-91
2022/02/13 03:34:10;;;;;;;11.63;7.20;;;3.80;67.10;;;;;;5035419;28;20179;-92
2022/02/13 03:36:36;;;;;;;11.63;6.23;;;3.80;67.10;;;;;;5037231;28;20190;-91
2022/02/13 03:39:04;;;;;;;14.53;6.70;;;3.90;67.00;;;;;;5026317;28;20205;-92
2022/02/13 03:41:30;;;;;;;11.30;6.38;;;3.70;67.10;;;;;;5016336;28;20427;-93
2022/02/13 03:43:56;;;;;;;15.98;6.85;;;3.70;67.00;;;;;;5014195;28;20396;-92
2022/02/13 03:46:21;;;;;;;12.23;5.67;;;3.70;67.90;;;;;;5015093;28;20327;-92
2022/02/13 03:48:47;;;;;;;9.67;6.37;;;3.70;67.20;;;;;;5028784;28;20194;-92
2022/02/13 03:51:13;;;;;;;11.80;6.70;;;3.60;67.60;;;;;;5014571;28;20736;-92
2022/02/13 03:53:38;;;;;;;10.17;6.30;;;3.70;67.50;;;;;;5016934;28;20208;-92
2022/02/13 03:56:04;;;;;;;11.50;6.23;;;3.70;67.50;;;;;;5007127;28;20203;-91
2022/02/13 03:58:30;;;;;;;12.55;6.22;;;3.60;67.30;;;;;;5007117;28;20288;-92
2022/02/13 04:00:56;;;;;;;9.20;6.50;;;3.60;67.50;;;;;;5010554;28;20186;-92
2022/02/13 04:03:22;;;;;;;9.33;5.27;;;3.70;67.80;;;;;;5013442;28;20198;-92
2022/02/13 04:05:48;;;;;;;13.27;6.20;;;3.80;67.50;;;;;;5015619;28;20413;-92
2022/02/13 04:08:14;;;;;;;11.13;6.55;;;3.70;67.40;;;;;;5018272;28;20605;-92
2022/02/13 04:10:40;;;;;;;10.67;6.63;;;3.80;67.50;;;;;;5027055;28;20186;-92
2022/02/13 04:13:06;;;;;;;9.80;5.83;;;3.90;67.80;;;;;;5019063;28;20578;-92
2022/02/13 04:15:31;;;;;;;12.13;6.77;;;3.90;67.50;;;;;;5027221;28;20676;-92
2022/02/13 04:17:57;;;;;;;11.57;7.43;;;3.90;67.20;;;;;;5023874;28;20198;-92
2022/02/13 04:20:23;;;;;;;10.83;6.17;;;3.70;67.50;;;;;;5018579;28;20440;-92
2022/02/13 04:22:49;;;;;;;14.37;5.93;;;3.70;67.60;;;;;;5019393;28;20308;-92
2022/02/13 04:25:14;;;;;;;13.07;6.23;;;3.70;68.00;;;;;;5036056;28;20321;-92
2022/02/13 04:27:40;;;;;;;11.00;6.03;;;3.60;68.00;;;;;;5018626;28;20514;-92
2022/02/13 04:30:07;;;;;;;13.80;6.70;;;3.50;68.00;;;;;;5029539;28;20642;-92
2022/02/13 04:32:33;;;;;;;12.70;6.47;;;3.60;69.10;;;;;;5010552;28;20655;-92
2022/02/13 04:35:00;;;;;;;12.02;5.72;;;3.60;68.30;;;;;;5005343;28;20189;-92
2022/02/13 04:37:25;;;;;;;10.00;5.28;;;3.60;68.50;;;;;;5030259;28;20173;-92
2022/02/13 04:39:51;;;;;;;12.40;6.50;;;3.50;68.40;;;;;;5021068;28;20197;-92
2022/02/13 04:42:17;;;;;;;11.97;6.13;;;3.50;68.50;;;;;;5021230;28;20261;-92
2022/02/13 04:44:44;;;;;;;11.33;6.87;;;3.60;68.30;;;;;;5001317;28;20183;-92
2022/02/13 04:47:10;;;;;;;14.40;7.05;;;3.60;68.20;;;;;;5002626;28;20430;-92
2022/02/13 04:49:36;;;;;;;8.73;5.70;;;3.50;68.30;;;;;;5015912;28;20266;-92
2022/02/13 04:52:03;;;;;;;10.85;6.72;;;3.50;68.30;;;;;;5017973;28;20193;-92
2022/02/13 04:54:28;;;;;;;9.98;5.07;;;3.50;68.40;;;;;;5017087;28;20178;-92
2022/02/13 04:56:54;;;;;;;14.90;7.37;;;3.40;68.60;;;;;;5017214;28;20239;-90
2022/02/13 04:59:20;;;;;;;10.30;5.50;;;3.70;68.70;;;;;;5010888;28;20202;-90
2022/02/13 05:01:45;;;;;;;11.40;4.93;;;3.80;68.30;;;;;;5017384;28;20288;-90
2022/02/13 05:04:11;;;;;;;10.70;5.47;;;3.60;67.90;;;;;;5016442;28;20512;-90
2022/02/13 05:06:37;;;;;;;13.20;6.90;;;3.50;68.20;;;;;;5019931;28;20417;-90
2022/02/13 05:09:03;;;;;;;9.73;5.50;;;3.40;68.20;;;;;;5034036;28;20536;-90
2022/02/13 05:11:29;;;;;;;12.50;6.32;;;3.50;68.50;;;;;;5016498;28;20646;-90
2022/02/13 05:13:55;;;;;;;16.23;5.40;;;3.70;68.30;;;;;;5016134;28;20728;-90
2022/02/13 05:16:21;;;;;;;10.00;5.93;;;3.50;68.20;;;;;;5017125;28;20186;-90
2022/02/13 05:18:47;;;;;;;9.15;6.32;;;3.50;68.40;;;;;;5015827;28;20472;-90
2022/02/13 05:21:13;;;;;;;12.40;7.17;;;3.60;68.60;;;;;;5017500;28;20593;-90
2022/02/13 05:23:38;;;;;;;8.97;5.50;;;3.60;68.60;;;;;;5008468;28;20201;-90
2022/02/13 05:26:04;;;;;;;9.90;5.07;;;3.60;68.50;;;;;;5016614;28;20444;-90
2022/02/13 05:28:30;;;;;;;9.73;5.30;;;3.40;68.50;;;;;;5017191;28;20459;-90
2022/02/13 05:30:56;;;;;;;10.90;6.07;;;3.40;69.10;;;;;;5016531;28;20525;-90
2022/02/13 05:33:21;;;;;;;9.77;5.17;;;3.30;69.40;;;;;;5033190;28;20448;-90
2022/02/13 05:35:47;;;;;;;9.50;5.47;;;3.20;69.80;;;;;;5019796;28;20447;-90
2022/02/13 05:38:13;;;;;;;9.87;6.37;;;3.10;70.20;;;;;;5025828;28;20260;-90
2022/02/13 05:40:39;;;;;;;12.00;5.07;;;3.00;70.50;;;;;;5016609;28;20178;-91
2022/02/13 05:43:04;;;;;;;8.77;5.00;;;3.10;70.90;;;;;;5032557;28;20189;-91
2022/02/13 05:45:30;;;;;;;14.93;5.10;;;3.00;70.80;;;;;;5033727;28;20787;-91
2022/02/13 05:47:56;;;;;;;16.60;6.22;;;3.10;71.00;;;;;;5020011;28;20684;-91
2022/02/13 05:50:22;;;;;;;9.00;5.60;;;3.10;70.90;;;;;;5007218;28;20190;-91
2022/02/13 05:52:47;;;;;;;7.57;5.57;;;3.20;70.80;;;;;;5018515;23;20222;-88
2022/02/13 05:55:13;;;;;;;7.20;5.00;;;3.10;70.80;;;;;;5023639;28;20182;-88
2022/02/13 05:57:43;;;;;;;8.07;5.23;;;3.20;70.90;;;;;;5025475;28;20272;-88
2022/02/13 06:00:11;;;;;;;8.15;6.10;;;3.20;70.50;;;;;;5024767;28;20182;-88
2022/02/13 06:02:39;;;;;;;7.57;5.50;;;3.40;70.50;;;;;;5038343;28;20261;-87
2022/02/13 06:05:05;;;;;;;12.07;5.70;;;3.40;70.30;;;;;;5019559;28;20237;-87
2022/02/13 06:07:39;;;;;;;9.38;5.82;;;3.40;71.00;;;;;;5036002;28;20186;-88
2022/02/13 06:10:10;;;;;;;8.02;4.50;;;3.40;70.20;;;;;;5024489;28;20186;-89
2022/02/13 06:12:36;;;;;;;7.43;4.80;;;3.40;70.10;;;;;;5008013;28;20198;-88
2022/02/13 06:15:02;;;;;;;6.90;4.67;;;3.50;70.20;;;;;;5028195;28;20194;-88
2022/02/13 06:17:28;;;;;;;8.93;5.20;;;3.30;70.30;;;;;;4999832;28;20410;-88
2022/02/13 06:19:54;;;;;;;10.87;5.27;;;3.40;70.40;;;;;;5003050;28;20183;-88
2022/02/13 06:22:20;;;;;;;6.70;4.63;;;3.50;70.20;;;;;;4998853;28;20194;-88
2022/02/13 06:24:46;;;;;;;7.82;5.20;;;3.60;69.90;;;;;;5017069;28;20667;-88
2022/02/13 06:27:11;;;;;;;9.97;5.93;;;3.60;69.70;;;;;;5000670;28;20181;-88
2022/02/13 06:29:37;;;;;;;8.93;5.00;;;3.60;69.50;;;;;;5005823;28;20182;-88
2022/02/13 06:32:03;;;;;;;7.60;4.73;;;3.60;69.60;;;;;;5000454;28;20673;-88
2022/02/13 06:34:29;;;;;;;11.05;5.25;;;3.50;69.40;;;;;;4997347;28;20266;-88
2022/02/13 06:36:55;;;;;;;9.73;5.20;;;3.60;69.60;;;;;;5009779;28;20800;-89
2022/02/13 06:39:20;;;;;;;5.97;4.38;;;3.60;69.60;;;;;;5009356;28;20453;-88
2022/02/13 06:41:46;;;;;;;15.87;4.57;;;3.60;69.50;;;;;;5014982;28;20181;-88
2022/02/13 06:44:13;;;;;;;9.60;5.37;;;3.60;69.40;;;;;;5022577;28;20199;-88
2022/02/13 06:46:40;;;;;;;8.82;5.45;;;3.60;69.40;;;;;;5013648;28;20425;-88
2022/02/13 06:49:07;;;;;;;9.20;6.35;;;3.60;69.00;;;;;;5004801;28;20186;-88
2022/02/13 06:51:32;;;;;;;7.85;6.03;;;3.60;68.90;;;;;;5005740;28;20642;-88
2022/02/13 06:53:58;;;;;;;7.23;5.70;;;3.60;69.20;;;;;;5004226;28;20329;-87
2022/02/13 06:56:24;;;;;;;9.80;6.10;;;3.60;69.40;;;;;;5015393;28;20239;-87
2022/02/13 06:58:50;;;;;;;9.20;5.83;;;3.60;69.20;;;;;;5018256;28;20208;-88
2022/02/13 07:01:16;;;;;;;10.70;6.00;;;3.60;69.20;;;;;;5018059;28;20424;-88
2022/02/13 07:03:42;;;;;;;6.90;5.13;;;3.50;69.10;;;;;;5007784;28;20197;-87
2022/02/13 07:06:08;;;;;;;8.70;5.03;;;3.50;69.20;;;;;;5003821;28;20235;-88
2022/02/13 07:08:34;;;;;;;10.53;5.03;;;3.60;69.40;;;;;;5035837;28;20170;-88
2022/02/13 07:11:00;;;;;;;9.60;5.55;;;3.70;69.10;;;;;;4999235;28;20185;-88
2022/02/13 07:13:26;;;;;;;9.53;6.07;;;3.80;69.00;;;;;;5003059;28;20272;-87
2022/02/13 07:15:52;;;;;;;8.40;5.10;;;3.80;68.80;;;;;;5006420;28;20811;-87
2022/02/13 07:18:17;;;;;;;10.20;5.68;;;3.70;68.60;;;;;;5023823;28;20456;-87
2022/02/13 07:20:43;;;;;;;9.13;5.40;;;3.80;68.60;;;;;;5008700;28;20190;-87
2022/02/13 07:23:09;;;;;;;8.83;5.43;;;3.80;68.50;;;;;;5012186;28;20197;-88
2022/02/13 07:25:34;;;;;;;8.77;5.73;;;3.90;68.70;;;;;;5009889;28;20733;-87
2022/02/13 07:28:58;;;;;;;6.90;5.87;;;4.20;68.50;;;;;;5013395;28;20726;-88
2022/02/13 07:30:49;;;;;;;10.55;6.80;;;4.20;68.00;;;;;;5026310;28;20178;-88
2022/02/13 07:33:15;;;;;;;8.10;5.20;;;4.20;67.60;;;;;;5001478;28;20216;-88
2022/02/13 07:35:43;;;;;;;10.17;6.27;;;4.10;67.60;;;;;;5033491;28;20185;-87
2022/02/13 07:38:10;;;;;;;6.53;5.22;;;4.20;67.90;;;;;;5011486;28;20461;-87
2022/02/13 07:40:36;;;;;;;6.65;4.95;;;4.40;68.00;;;;;;5020670;28;20193;-89
2022/02/13 07:43:02;;;;;;;6.93;5.25;;;4.40;67.40;;;;;;5011841;28;20244;-89
2022/02/13 07:45:28;;;;;;;11.03;7.40;;;4.40;67.20;;;;;;5008602;28;20182;-88
2022/02/13 07:47:53;;;;;;;10.20;5.43;;;4.30;67.30;;;;;;5018251;28;20213;-89
2022/02/13 07:50:19;;;;;;;9.07;5.50;;;4.50;67.30;;;;;;5019235;28;20322;-89
2022/02/13 07:52:45;;;;;;;12.57;6.50;;;4.50;67.40;;;;;;5005650;28;20240;-89
2022/02/13 07:55:12;;;;;;;10.57;5.70;;;4.60;67.50;;;;;;5019030;28;20174;-87
2022/02/13 07:57:38;;;;;;;10.70;6.78;;;4.60;67.10;;;;;;5005682;28;20279;-88
2022/02/13 08:00:05;;;;;;;14.25;7.82;;;4.60;67.00;;;;;;5029881;28;20182;-86
2022/02/13 08:02:32;;;;;;;13.63;6.88;;;4.90;67.20;;;;;;5011505;28;20194;-88
2022/02/13 08:05:00;;;;;;;15.00;7.40;;;4.80;66.10;;;;;;5018327;28;20214;-89
2022/02/13 08:07:26;;;;;;;12.15;6.93;;;4.80;66.00;;;;;;5012558;28;20184;-89
2022/02/13 08:09:51;;;;;;;9.93;6.37;;;4.70;65.50;;;;;;5021107;28;20264;-89
2022/02/13 08:12:17;;;;;;;11.73;6.70;;;4.60;65.50;;;;;;5003759;28;20204;-89
2022/02/13 08:14:43;;;;;;;10.97;6.80;;;4.60;66.00;;;;;;5033463;28;20183;-89
2022/02/13 08:17:08;;;;;;;10.53;6.40;;;4.80;66.10;;;;;;5010169;28;20239;-88
2022/02/13 08:19:36;;;;;;;14.67;6.70;;;4.80;66.10;;;;;;5005250;28;20705;-89
2022/02/13 08:22:05;;;;;;;10.73;6.20;;;4.60;65.30;;;;;;5032857;28;20234;-88
2022/02/13 08:24:33;;;;;;;17.27;7.55;;;4.70;65.60;;;;;;5034367;28;20603;-89
2022/02/13 08:26:59;;;;;;;14.40;6.43;;;4.70;65.40;;;;;;5007878;28;20185;-89
2022/02/13 08:29:25;;;;;;;15.27;6.80;;;5.00;65.60;;;;;;5017664;28;21998;-90
2022/02/13 08:31:51;;;;;;;10.95;6.13;;;5.10;65.40;;;;;;5021006;28;20181;-91
2022/02/13 08:34:17;;;;;;;13.23;6.80;;;5.10;64.70;;;;;;5020093;28;20359;-90
2022/02/13 08:36:48;;;;;;;12.03;7.13;;;5.00;64.80;;;;;;5017319;28;21129;-91
2022/02/13 08:39:13;;;;;;;15.32;6.70;;;5.20;64.60;;;;;;5021665;28;20614;-91
2022/02/13 08:41:39;;;;;;;10.40;6.37;;;5.30;64.90;;;;;;5021918;28;20197;-91
2022/02/13 08:44:06;;;;;;;13.60;6.43;;;5.40;65.40;;;;;;5011603;28;20190;-91
2022/02/13 08:46:34;;;;;;;13.48;7.00;;;5.50;65.60;;;;;;5034255;28;20162;-91
2022/02/13 08:49:00;;;;;;;12.38;6.20;;;5.50;65.10;;;;;;5019275;28;20239;-89
2022/02/13 08:51:27;;;;;;;13.27;6.60;;;5.70;65.40;;;;;;5017545;28;20185;-92
2022/02/13 08:53:52;;;;;;;13.98;7.75;;;5.50;64.00;;;;;;5032722;28;20209;-89
2022/02/13 08:56:18;;;;;;;15.27;7.83;;;5.50;64.80;;;;;;5018185;28;20209;-91
2022/02/13 08:58:44;;;;;;;11.43;7.33;;;5.40;65.20;;;;;;5021591;28;20516;-90
2022/02/13 09:01:10;;;;;;;12.85;6.93;;;5.70;64.70;;;;;;5021263;28;20417;-91
2022/02/13 09:03:36;;;;;;;11.60;6.23;;;5.90;64.30;;;;;;5033747;28;20202;-90
2022/02/13 09:06:02;;;;;;;11.40;6.67;;;6.10;63.50;;;;;;5037369;28;20208;-90
2022/02/13 09:08:28;;;;;;;11.45;5.78;;;6.10;62.80;;;;;;5033727;28;20182;-92
2022/02/13 09:11:06;;;;;;;12.30;6.80;;;6.00;63.10;;;;;;5021811;28;20253;-92
2022/02/13 09:13:32;;;;;;;10.70;6.75;;;6.10;63.10;;;;;;5018429;28;20942;-92
2022/02/13 09:15:57;;;;;;;15.37;7.00;;;5.90;62.80;;;;;;5038789;28;20186;-92
2022/02/13 09:18:23;;;;;;;16.27;5.90;;;6.10;62.70;;;;;;5035845;28;20236;-91
2022/02/13 09:20:49;;;;;;;7.90;6.13;;;5.90;62.80;;;;;;5019412;28;20198;-92
2022/02/13 09:23:21;;;;;;;14.73;6.75;;;5.90;63.10;;;;;;5020283;28;20215;-91
2022/02/13 09:25:48;;;;;;;13.27;6.65;;;5.80;62.80;;;;;;5007531;28;20203;-92
2022/02/13 09:28:16;;;;;;;15.88;6.72;;;5.80;63.10;;;;;;5021850;28;20170;-92
2022/02/13 09:30:46;;;;;;;9.80;5.65;;;5.80;64.00;;;;;;5023309;28;20626;-92
2022/02/13 09:33:12;;;;;;;14.43;7.13;;;5.90;64.30;;;;;;5019527;28;20212;-90
2022/02/13 09:35:38;;;;;;;10.80;7.40;;;6.10;63.90;;;;;;5018148;28;20186;-90
2022/02/13 09:38:04;;;;;;;10.80;5.77;;;5.90;63.80;;;;;;5036659;28;20205;-92
2022/02/13 09:40:33;;;;;;;14.23;6.97;;;5.90;63.90;;;;;;5019003;28;20476;-91
2022/02/13 09:43:03;;;;;;;11.27;6.65;;;5.90;64.30;;;;;;5018942;28;20197;-91
2022/02/13 09:45:42;;;;;;;10.13;6.47;;;5.90;64.40;;;;;;5035702;28;20200;-90
2022/02/13 09:48:12;;;;;;;9.07;6.53;;;6.30;64.40;;;;;;5000074;28;20170;-90
2022/02/13 09:50:38;;;;;;;11.43;5.85;;;6.50;64.00;;;;;;5018546;28;20711;-92
2022/02/13 09:53:05;;;;;;;14.50;5.97;;;6.80;63.50;;;;;;5018239;28;20228;-90
2022/02/13 09:55:31;;;;;;;14.55;5.78;;;6.90;63.10;;;;;;5018129;28;20213;-91
2022/02/13 09:58:00;;;;;;;10.73;5.40;;;6.90;62.20;;;;;;5018779;28;20213;-91
2022/02/13 10:00:47;;;;;;;9.38;5.47;;;7.10;62.00;;;;;;5020070;28;20775;-91
2022/02/13 10:03:32;;;;;;;7.28;5.03;;;7.20;62.00;;;;;;5021972;28;20201;-91
2022/02/13 10:06:00;;;;;;;10.68;5.03;;;7.10;61.60;;;;;;5002619;28;20269;-90
2022/02/13 10:08:41;;;;;;;5.45;3.97;;;7.00;61.40;;;;;;5000044;28;20198;-91
2022/02/13 10:11:11;;;;;;;7.22;5.00;;;7.40;62.10;;;;;;5002118;28;20170;-90
2022/02/13 10:14:01;;;;;;;7.75;4.70;;;7.10;61.10;;;;;;5009187;28;20234;-91
2022/02/13 10:16:38;;;;;;;5.85;3.95;;;7.20;61.40;;;;;;4994152;28;20196;-90
2022/02/13 10:19:15;;;;;;;10.32;5.00;;;7.50;62.10;;;;;;5011201;28;20202;-90
2022/02/13 10:21:41;;;;;;;8.25;4.57;;;7.50;61.60;;;;;;5013275;28;20162;-91
2022/02/13 10:24:27;;;;;;;6.63;4.27;;;7.80;61.30;;;;;;5043208;28;20194;-90
2022/02/13 10:26:56;;;;;;;7.25;4.88;;;8.00;60.90;;;;;;5024380;28;20165;-91
2022/02/13 10:29:30;;;;;;;5.55;3.75;;;8.10;60.40;;;;;;5023503;28;20185;-91
2022/02/13 10:32:29;;;;;;;6.07;4.68;;;8.20;60.40;;;;;;5022626;28;20236;-91
2022/02/13 10:35:15;;;;;;;6.40;4.53;;;8.50;60.30;;;;;;4972117;28;20239;-91
2022/02/13 10:37:55;;;;;;;8.73;6.07;;;8.20;59.50;;;;;;5018979;28;20218;-91
2022/02/13 10:40:26;;;;;;;6.70;5.05;;;8.40;60.00;;;;;;5020960;28;20273;-91
2022/02/13 10:43:12;;;;;;;11.48;4.82;;;8.60;59.90;;;;;;5042493;28;20197;-90
2022/02/13 10:45:40;;;;;;;8.30;4.38;;;8.50;60.10;;;;;;5026644;28;20193;-91
2022/02/13 10:48:07;;;;;;;9.95;5.80;;;8.40;60.70;;;;;;5020707;28;20654;-90
2022/02/13 10:50:36;;;;;;;6.50;4.50;;;8.70;60.90;;;;;;5020366;28;20190;-90
2022/02/13 10:53:03;;;;;;;7.35;3.90;;;8.80;60.40;;;;;;5021450;28;20209;-89
2022/02/13 10:55:30;;;;;;;7.15;4.03;;;8.60;60.40;;;;;;5022715;28;20216;-89
2022/02/13 10:57:58;;;;;;;7.82;3.90;;;8.70;61.10;;;;;;5022374;28;20774;-90
2022/02/13 11:00:26;;;;;;;6.30;4.07;;;8.70;61.00;;;;;;5022769;28;20174;-91
2022/02/13 11:02:54;;;;;;;10.88;6.80;;;8.70;61.10;;;;;;5020186;28;20221;-91
2022/02/13 11:05:28;;;;;;;5.93;4.30;;;8.80;61.40;;;;;;5022876;28;20204;-90
2022/02/13 11:08:01;;;;;;;14.85;4.75;;;9.00;60.90;;;;;;5024631;28;20162;-90
2022/02/13 11:10:30;;;;;;;7.95;4.47;;;8.90;60.80;;;;;;5021901;28;20174;-90
2022/02/13 11:12:56;;;;;;;8.75;5.70;;;8.90;60.50;;;;;;5021017;28;20196;-88
2022/02/13 11:15:27;;;;;;;6.82;5.30;;;8.80;60.60;;;;;;5021500;28;20670;-89
2022/02/13 11:18:02;;;;;;;5.25;4.63;;;8.90;60.40;;;;;;5028615;28;20173;-89
2022/02/13 11:20:28;;;;;;;6.25;4.43;;;9.30;60.40;;;;;;5031501;28;20176;-89
2022/02/13 11:22:54;;;;;;;6.93;4.50;;;9.10;59.60;;;;;;5029519;28;20197;-89
2022/02/13 11:25:49;;;;;;;8.60;5.30;;;9.10;59.60;;;;;;5031448;28;20254;-89
2022/02/13 11:28:16;;;;;;;9.48;5.90;;;9.60;60.10;;;;;;5021119;28;20415;-89
2022/02/13 11:30:50;;;;;;;14.13;7.68;;;9.40;59.40;;;;;;5021828;28;20560;-88
2022/02/13 11:33:42;;;;;;;15.77;6.72;;;9.30;59.60;;;;;;5038223;28;20210;-89
2022/02/13 11:36:11;;;;;;;10.88;6.07;;;9.40;60.30;;;;;;5012722;28;20656;-89
2022/02/13 11:38:40;;;;;;;18.30;6.45;;;9.40;59.40;;;;;;5010830;28;20225;-89
2022/02/13 11:41:07;;;;;;;5.82;4.82;;;9.40;59.30;;;;;;5023384;28;20178;-89
2022/02/13 11:43:59;;;;;;;12.18;5.63;;;9.40;58.70;;;;;;5021371;28;20216;-89
2022/02/13 11:46:30;;;;;;;12.15;5.25;;;9.90;58.70;;;;;;4988641;28;20174;-89
2022/02/13 11:48:58;;;;;;;8.38;4.50;;;10.00;57.40;;;;;;5022430;28;20559;-89
2022/02/13 11:51:45;;;;;;;9.27;5.28;;;10.20;57.00;;;;;;5004295;28;20181;-89
2022/02/13 11:54:57;;;;;;;7.60;4.43;;;10.10;55.40;;;;;;5028321;28;20264;-88
2022/02/13 11:57:30;;;;;;;5.53;3.88;;;10.30;55.30;;;;;;5019372;28;20177;-88
2022/02/13 11:59:55;;;;;;;7.10;4.18;;;10.10;54.70;;;;;;5021828;28;20229;-88
2022/02/13 12:02:30;;;;;;;7.83;4.27;;;10.00;54.90;;;;;;5017867;28;20568;-88
2022/02/13 12:05:11;;;;;;;6.28;3.80;;;10.00;54.60;;;;;;5036773;28;20732;-87
2022/02/13 12:07:43;;;;;;;8.77;3.70;;;10.20;55.20;;;;;;5028852;28;20254;-88
2022/02/13 12:10:27;;;;;;;7.95;3.97;;;10.10;55.10;;;;;;5004795;28;20773;-88
2022/02/13 12:13:13;;;;;;;4.57;3.72;;;10.10;54.90;;;;;;5019250;28;20197;-88
2022/02/13 12:15:58;;;;;;;4.78;4.10;;;10.20;54.80;;;;;;5013098;28;20174;-89
2022/02/13 12:18:24;;;;;;;6.68;4.13;;;10.60;56.30;;;;;;5011183;28;20205;-88
2022/02/13 12:20:57;;;;;;;5.40;3.70;;;10.50;54.40;;;;;;5013588;28;20181;-88
2022/02/13 12:23:23;;;;;;;11.30;3.75;;;10.40;53.60;;;;;;5010049;28;20194;-88
2022/02/13 12:25:50;;;;;;;7.13;3.80;;;10.50;54.10;;;;;;5018506;28;20661;-89
2022/02/13 12:28:18;;;;;;;7.18;3.70;;;10.60;53.70;;;;;;5018066;28;20193;-87
2022/02/13 12:30:57;;;;;;;8.38;4.35;;;10.40;53.60;;;;;;5019056;28;20186;-87
2022/02/13 12:33:26;;;;;;;4.30;3.55;;;10.60;55.10;;;;;;5018411;28;20202;-88
2022/02/13 12:35:59;;;;;;;6.90;3.85;;;10.60;54.90;;;;;;5009893;28;20582;-87
2022/02/13 12:38:27;;;;;;;6.10;4.15;;;10.70;55.50;;;;;;5018174;28;20224;-87
2022/02/13 12:40:56;;;;;;;6.90;4.50;;;10.80;55.00;;;;;;5017826;28;20260;-89
2022/02/13 12:43:25;;;;;;;6.55;4.15;;;10.90;55.10;;;;;;5032810;28;20211;-89
2022/02/13 12:45:56;;;;;;;10.32;4.50;;;10.80;54.90;;;;;;5005122;28;20270;-89
2022/02/13 12:48:25;;;;;;;8.65;4.57;;;10.90;55.70;;;;;;5018476;28;20178;-89
2022/02/13 12:50:54;;;;;;;8.85;4.78;;;11.20;56.50;;;;;;5018215;28;20189;-89
2022/02/13 12:53:24;;;;;;;14.20;4.60;;;11.10;55.30;;;;;;4967491;28;1487756;-88
2022/02/13 12:55:50;;;;;;;11.52;4.38;;;11.30;56.20;;;;;;5019725;28;20547;-89